sensor_id;sensor_type;location;lat;lon;timestamp;pressure;altitude;pressure_sealevel;temperature;humidity
33151;BME280;19508;42.578;23.416;2023-01-15T00:00:03;94098.41;;;5.35;71.44
33151;BME280;19508;42.578;23.416;2023-01-15T00:02:30;94093.25;;;5.41;71.29
33151;BME280;19508;42.578;23.416;2023-01-15T00:04:58;94088.16;;;5.32;71.48
33151;BME280;19508;42.578;23.416;2023-01-15T00:07:33;94087.72;;;5.35;71.15
33151;BME280;19508;42.578;23.416;2023-01-15T00:10:00;94093.38;;;5.52;70.66
33151;BME280;19508;42.578;23.416;2023-01-15T00:12:29;94093.47;;;5.39;71.14
33151;BME280;19508;42.578;23.416;2023-01-15T00:14:55;94089.81;;;5.33;71.33
33151;BME280;19508;42.578;23.416;2023-01-15T00:17:25;94077.91;;;5.29;71.39
33151;BME280;19508;42.578;23.416;2023-01-15T00:19:53;94075.22;;;5.29;71.42
33151;BME280;19508;42.578;23.416;2023-01-15T00:22:21;94082.78;;;5.39;71.37
33151;BME280;19508;42.578;23.416;2023-01-15T00:24:55;94093.28;;;5.34;71.64
33151;BME280;19508;42.578;23.416;2023-01-15T00:27:41;94090.41;;;5.35;71.62
33151;BME280;19508;42.578;23.416;2023-01-15T00:30:13;94077.53;;;5.26;71.46
33151;BME280;19508;42.578;23.416;2023-01-15T00:32:43;94072.56;;;5.29;71.42
33151;BME280;19508;42.578;23.416;2023-01-15T00:35:20;94064.84;;;5.21;71.75
33151;BME280;19508;42.578;23.416;2023-01-15T00:37:50;94071.19;;;5.20;71.76
33151;BME280;19508;42.578;23.416;2023-01-15T00:40:18;94084.28;;;5.28;71.72
33151;BME280;19508;42.578;23.416;2023-01-15T00:42:46;94065.50;;;5.10;72.30
33151;BME280;19508;42.578;23.416;2023-01-15T00:45:13;94074.72;;;5.14;72.84
33151;BME280;19508;42.578;23.416;2023-01-15T00:47:42;94077.16;;;5.22;72.22
33151;BME280;19508;42.578;23.416;2023-01-15T00:50:12;94072.22;;;5.19;72.22
33151;BME280;19508;42.578;23.416;2023-01-15T00:52:44;94059.44;;;5.28;71.80
33151;BME280;19508;42.578;23.416;2023-01-15T00:55:11;94060.25;;;5.28;71.71
33151;BME280;19508;42.578;23.416;2023-01-15T00:57:40;94070.25;;;5.40;71.62
33151;BME280;19508;42.578;23.416;2023-01-15T01:00:13;94054.91;;;5.28;71.54
33151;BME280;19508;42.578;23.416;2023-01-15T01:02:43;94065.34;;;5.36;71.62
33151;BME280;19508;42.578;23.416;2023-01-15T01:05:15;94068.78;;;5.44;71.84
33151;BME280;19508;42.578;23.416;2023-01-15T01:07:45;94076.50;;;5.27;72.20
33151;BME280;19508;42.578;23.416;2023-01-15T01:10:15;94069.03;;;5.35;72.16
33151;BME280;19508;42.578;23.416;2023-01-15T01:12:41;94078.88;;;5.42;71.85
33151;BME280;19508;42.578;23.416;2023-01-15T01:15:09;94074.56;;;5.41;71.84
33151;BME280;19508;42.578;23.416;2023-01-15T01:17:47;94071.72;;;5.35;72.01
33151;BME280;19508;42.578;23.416;2023-01-15T01:20:21;94081.97;;;5.38;72.12
33151;BME280;19508;42.578;23.416;2023-01-15T01:22:48;94068.88;;;5.30;72.14
33151;BME280;19508;42.578;23.416;2023-01-15T01:25:18;94062.28;;;5.33;71.98
33151;BME280;19508;42.578;23.416;2023-01-15T01:27:48;94045.94;;;5.23;71.54
33151;BME280;19508;42.578;23.416;2023-01-15T01:30:26;94060.63;;;5.38;71.58
33151;BME280;19508;42.578;23.416;2023-01-15T01:33:01;94037.25;;;5.27;71.72
33151;BME280;19508;42.578;23.416;2023-01-15T01:35:48;94055.28;;;5.38;71.73
33151;BME280;19508;42.578;23.416;2023-01-15T01:38:14;94058.47;;;5.22;71.75
33151;BME280;19508;42.578;23.416;2023-01-15T01:40:39;94059.34;;;5.09;72.74
33151;BME280;19508;42.578;23.416;2023-01-15T01:43:19;94057.22;;;5.18;72.76
33151;BME280;19508;42.578;23.416;2023-01-15T01:45:45;94060.50;;;5.20;72.60
33151;BME280;19508;42.578;23.416;2023-01-15T01:48:11;94053.38;;;5.14;72.93
33151;BME280;19508;42.578;23.416;2023-01-15T01:50:38;94056.41;;;5.18;72.88
33151;BME280;19508;42.578;23.416;2023-01-15T01:53:07;94040.63;;;5.16;73.01
33151;BME280;19508;42.578;23.416;2023-01-15T01:55:35;94059.50;;;5.21;72.84
33151;BME280;19508;42.578;23.416;2023-01-15T01:58:03;94057.91;;;5.07;73.33
33151;BME280;19508;42.578;23.416;2023-01-15T02:00:30;94055.94;;;4.96;73.57
33151;BME280;19508;42.578;23.416;2023-01-15T02:02:58;94057.47;;;5.10;73.30
33151;BME280;19508;42.578;23.416;2023-01-15T02:05:31;94046.75;;;5.23;72.56
33151;BME280;19508;42.578;23.416;2023-01-15T02:07:57;94049.56;;;5.28;72.25
33151;BME280;19508;42.578;23.416;2023-01-15T02:10:24;94046.91;;;5.28;72.36
33151;BME280;19508;42.578;23.416;2023-01-15T02:12:56;94055.94;;;5.27;72.66
33151;BME280;19508;42.578;23.416;2023-01-15T02:15:32;94052.25;;;5.28;72.81
33151;BME280;19508;42.578;23.416;2023-01-15T02:18:09;94045.09;;;5.22;72.96
33151;BME280;19508;42.578;23.416;2023-01-15T02:20:41;94053.72;;;5.24;73.12
33151;BME280;19508;42.578;23.416;2023-01-15T02:28:27;94050.59;;;5.27;72.53
33151;BME280;19508;42.578;23.416;2023-01-15T02:31:00;94056.81;;;5.21;72.58
33151;BME280;19508;42.578;23.416;2023-01-15T02:33:40;94048.28;;;5.37;72.34
33151;BME280;19508;42.578;23.416;2023-01-15T02:36:12;94052.75;;;5.12;72.85
33151;BME280;19508;42.578;23.416;2023-01-15T02:38:43;94047.66;;;5.04;73.53
33151;BME280;19508;42.578;23.416;2023-01-15T02:41:10;94053.00;;;5.04;73.38
33151;BME280;19508;42.578;23.416;2023-01-15T02:43:49;94039.06;;;5.02;73.64
33151;BME280;19508;42.578;23.416;2023-01-15T02:46:17;94042.75;;;5.01;73.28
33151;BME280;19508;42.578;23.416;2023-01-15T02:48:46;94042.50;;;5.09;73.25
33151;BME280;19508;42.578;23.416;2023-01-15T02:51:17;94049.69;;;5.08;73.21
33151;BME280;19508;42.578;23.416;2023-01-15T02:53:45;94045.16;;;5.09;73.38
33151;BME280;19508;42.578;23.416;2023-01-15T02:56:15;94051.09;;;5.11;73.26
33151;BME280;19508;42.578;23.416;2023-01-15T02:58:43;94035.56;;;5.01;73.35
33151;BME280;19508;42.578;23.416;2023-01-15T03:01:13;94032.06;;;5.01;73.57
33151;BME280;19508;42.578;23.416;2023-01-15T03:03:45;94039.47;;;5.05;72.90
33151;BME280;19508;42.578;23.416;2023-01-15T03:06:18;94030.41;;;5.06;72.63
33151;BME280;19508;42.578;23.416;2023-01-15T03:08:46;94038.44;;;5.00;72.75
33151;BME280;19508;42.578;23.416;2023-01-15T03:11:17;94037.03;;;4.97;73.14
33151;BME280;19508;42.578;23.416;2023-01-15T03:13:49;94043.56;;;5.01;73.06
33151;BME280;19508;42.578;23.416;2023-01-15T03:16:33;94036.97;;;5.04;73.04
33151;BME280;19508;42.578;23.416;2023-01-15T03:24:22;94047.13;;;4.89;73.61
33151;BME280;19508;42.578;23.416;2023-01-15T03:26:51;94043.19;;;4.98;72.87
33151;BME280;19508;42.578;23.416;2023-01-15T03:29:18;94046.25;;;4.95;73.22
33151;BME280;19508;42.578;23.416;2023-01-15T03:31:44;94042.84;;;4.88;73.76
33151;BME280;19508;42.578;23.416;2023-01-15T03:34:10;94051.59;;;4.95;73.62
33151;BME280;19508;42.578;23.416;2023-01-15T03:36:36;94041.63;;;4.84;73.71
33151;BME280;19508;42.578;23.416;2023-01-15T03:39:02;94039.97;;;4.82;73.92
33151;BME280;19508;42.578;23.416;2023-01-15T03:44:44;94055.59;;;5.17;73.32
33151;BME280;19508;42.578;23.416;2023-01-15T03:47:16;94052.63;;;4.94;74.26
33151;BME280;19508;42.578;23.416;2023-01-15T03:50:09;94053.41;;;5.07;73.72
33151;BME280;19508;42.578;23.416;2023-01-15T03:52:52;94059.13;;;5.11;73.69
33151;BME280;19508;42.578;23.416;2023-01-15T03:55:28;94057.09;;;5.06;73.64
33151;BME280;19508;42.578;23.416;2023-01-15T03:58:01;94062.03;;;5.03;73.90
33151;BME280;19508;42.578;23.416;2023-01-15T04:00:35;94052.59;;;5.07;73.64
33151;BME280;19508;42.578;23.416;2023-01-15T04:03:05;94053.63;;;5.06;73.44
33151;BME280;19508;42.578;23.416;2023-01-15T04:05:33;94052.19;;;5.03;73.50
33151;BME280;19508;42.578;23.416;2023-01-15T04:08:00;94048.53;;;4.98;73.46
33151;BME280;19508;42.578;23.416;2023-01-15T04:10:26;94054.66;;;5.05;73.67
33151;BME280;19508;42.578;23.416;2023-01-15T04:12:51;94043.97;;;5.05;73.15
33151;BME280;19508;42.578;23.416;2023-01-15T04:15:16;94043.31;;;5.09;72.79
33151;BME280;19508;42.578;23.416;2023-01-15T04:17:43;94043.53;;;5.08;72.83
33151;BME280;19508;42.578;23.416;2023-01-15T04:20:09;94042.53;;;5.02;73.16
33151;BME280;19508;42.578;23.416;2023-01-15T04:22:34;94041.69;;;5.08;72.72
33151;BME280;19508;42.578;23.416;2023-01-15T04:25:01;94049.72;;;5.02;73.06
33151;BME280;19508;42.578;23.416;2023-01-15T04:27:27;94054.19;;;5.15;72.93
33151;BME280;19508;42.578;23.416;2023-01-15T04:29:52;94055.84;;;5.09;73.08
33151;BME280;19508;42.578;23.416;2023-01-15T04:32:18;94053.78;;;5.11;72.75
33151;BME280;19508;42.578;23.416;2023-01-15T04:34:44;94054.22;;;5.08;72.83
33151;BME280;19508;42.578;23.416;2023-01-15T04:37:09;94056.06;;;5.07;73.04
33151;BME280;19508;42.578;23.416;2023-01-15T04:39:34;94055.63;;;5.10;72.76
33151;BME280;19508;42.578;23.416;2023-01-15T04:42:00;94058.72;;;5.14;72.71
33151;BME280;19508;42.578;23.416;2023-01-15T04:44:44;94064.47;;;5.11;72.48
33151;BME280;19508;42.578;23.416;2023-01-15T04:47:09;94062.66;;;5.05;72.84
33151;BME280;19508;42.578;23.416;2023-01-15T04:49:35;94064.88;;;5.08;73.04
33151;BME280;19508;42.578;23.416;2023-01-15T04:52:00;94067.34;;;5.09;72.83
33151;BME280;19508;42.578;23.416;2023-01-15T04:54:26;94070.19;;;5.15;72.54
33151;BME280;19508;42.578;23.416;2023-01-15T04:56:52;94062.78;;;5.17;72.43
33151;BME280;19508;42.578;23.416;2023-01-15T04:59:20;94047.59;;;5.17;72.09
33151;BME280;19508;42.578;23.416;2023-01-15T05:01:47;94064.84;;;5.21;72.20
33151;BME280;19508;42.578;23.416;2023-01-15T05:04:12;94065.44;;;5.23;72.29
33151;BME280;19508;42.578;23.416;2023-01-15T05:06:38;94066.09;;;5.12;72.73
33151;BME280;19508;42.578;23.416;2023-01-15T05:09:04;94054.81;;;5.10;72.77
33151;BME280;19508;42.578;23.416;2023-01-15T05:11:30;94048.03;;;5.14;72.58
33151;BME280;19508;42.578;23.416;2023-01-15T05:13:56;94057.81;;;5.20;72.51
33151;BME280;19508;42.578;23.416;2023-01-15T05:16:24;94051.75;;;5.13;72.16
33151;BME280;19508;42.578;23.416;2023-01-15T05:18:51;94058.66;;;5.21;72.06
33151;BME280;19508;42.578;23.416;2023-01-15T05:21:22;94057.06;;;5.13;72.23
33151;BME280;19508;42.578;23.416;2023-01-15T05:23:49;94051.09;;;5.11;72.36
33151;BME280;19508;42.578;23.416;2023-01-15T05:26:15;94054.03;;;5.03;72.54
33151;BME280;19508;42.578;23.416;2023-01-15T05:28:41;94057.19;;;4.87;73.45
33151;BME280;19508;42.578;23.416;2023-01-15T05:31:08;94046.09;;;4.90;73.31
33151;BME280;19508;42.578;23.416;2023-01-15T05:33:35;94056.59;;;4.85;73.66
33151;BME280;19508;42.578;23.416;2023-01-15T05:36:07;94044.03;;;4.92;73.66
33151;BME280;19508;42.578;23.416;2023-01-15T05:38:33;94064.59;;;4.85;73.80
33151;BME280;19508;42.578;23.416;2023-01-15T05:41:03;94049.03;;;4.81;73.79
33151;BME280;19508;42.578;23.416;2023-01-15T05:43:48;94054.59;;;4.73;74.48
33151;BME280;19508;42.578;23.416;2023-01-15T05:46:14;94057.00;;;4.88;73.86
33151;BME280;19508;42.578;23.416;2023-01-15T05:48:39;94037.56;;;4.74;74.00
33151;BME280;19508;42.578;23.416;2023-01-15T05:51:05;94044.03;;;4.92;73.52
33151;BME280;19508;42.578;23.416;2023-01-15T05:53:30;94049.19;;;4.87;74.10
33151;BME280;19508;42.578;23.416;2023-01-15T05:56:00;94033.88;;;4.69;74.85
33151;BME280;19508;42.578;23.416;2023-01-15T05:58:25;94048.94;;;4.95;73.96
33151;BME280;19508;42.578;23.416;2023-01-15T06:00:51;94059.59;;;4.95;73.89
33151;BME280;19508;42.578;23.416;2023-01-15T06:03:16;94057.94;;;5.00;73.91
33151;BME280;19508;42.578;23.416;2023-01-15T06:05:42;94059.59;;;4.95;74.08
33151;BME280;19508;42.578;23.416;2023-01-15T06:08:07;94068.25;;;4.97;74.02
33151;BME280;19508;42.578;23.416;2023-01-15T06:10:32;94072.53;;;5.04;73.80
33151;BME280;19508;42.578;23.416;2023-01-15T06:12:58;94062.09;;;4.96;74.00
33151;BME280;19508;42.578;23.416;2023-01-15T06:15:23;94064.28;;;5.06;73.64
33151;BME280;19508;42.578;23.416;2023-01-15T06:17:49;94053.41;;;5.07;73.56
33151;BME280;19508;42.578;23.416;2023-01-15T06:20:15;94060.94;;;5.17;73.37
33151;BME280;19508;42.578;23.416;2023-01-15T06:22:40;94066.03;;;5.25;73.29
33151;BME280;19508;42.578;23.416;2023-01-15T06:25:06;94054.53;;;5.25;72.44
33151;BME280;19508;42.578;23.416;2023-01-15T06:27:32;94057.53;;;5.35;71.88
33151;BME280;19508;42.578;23.416;2023-01-15T06:29:57;94063.19;;;5.52;71.55
33151;BME280;19508;42.578;23.416;2023-01-15T06:32:24;94065.41;;;5.55;71.74
33151;BME280;19508;42.578;23.416;2023-01-15T06:34:49;94043.22;;;5.54;71.14
33151;BME280;19508;42.578;23.416;2023-01-15T06:37:15;94053.03;;;5.60;70.81
33151;BME280;19508;42.578;23.416;2023-01-15T06:39:40;94061.09;;;5.54;71.56
33151;BME280;19508;42.578;23.416;2023-01-15T06:42:07;94053.78;;;5.74;70.56
33151;BME280;19508;42.578;23.416;2023-01-15T06:44:51;94046.91;;;5.85;70.06
33151;BME280;19508;42.578;23.416;2023-01-15T06:47:48;94054.06;;;5.91;69.26
33151;BME280;19508;42.578;23.416;2023-01-15T06:50:14;94065.91;;;6.02;69.01
33151;BME280;19508;42.578;23.416;2023-01-15T06:52:40;94061.53;;;6.07;69.26
33151;BME280;19508;42.578;23.416;2023-01-15T06:55:06;94062.50;;;6.13;69.48
33151;BME280;19508;42.578;23.416;2023-01-15T06:57:31;94053.44;;;6.14;68.77
33151;BME280;19508;42.578;23.416;2023-01-15T06:59:57;94057.69;;;6.21;68.65
33151;BME280;19508;42.578;23.416;2023-01-15T07:02:22;94047.16;;;6.27;68.85
33151;BME280;19508;42.578;23.416;2023-01-15T07:04:48;94050.16;;;6.12;69.54
33151;BME280;19508;42.578;23.416;2023-01-15T07:07:15;94056.72;;;6.16;69.16
33151;BME280;19508;42.578;23.416;2023-01-15T07:09:41;94054.38;;;6.44;68.84
33151;BME280;19508;42.578;23.416;2023-01-15T07:12:07;94043.09;;;6.42;67.88
33151;BME280;19508;42.578;23.416;2023-01-15T07:14:32;94050.59;;;6.52;67.98
33151;BME280;19508;42.578;23.416;2023-01-15T07:16:58;94051.13;;;6.42;68.53
33151;BME280;19508;42.578;23.416;2023-01-15T07:19:23;94050.66;;;6.45;68.58
33151;BME280;19508;42.578;23.416;2023-01-15T07:21:49;94054.94;;;6.28;69.53
33151;BME280;19508;42.578;23.416;2023-01-15T07:24:15;94055.41;;;6.25;70.10
33151;BME280;19508;42.578;23.416;2023-01-15T07:26:42;94050.41;;;6.29;69.77
33151;BME280;19508;42.578;23.416;2023-01-15T07:29:08;94059.78;;;6.38;69.87
33151;BME280;19508;42.578;23.416;2023-01-15T07:31:33;94058.09;;;6.62;69.66
33151;BME280;19508;42.578;23.416;2023-01-15T07:33:59;94053.94;;;7.14;67.75
33151;BME280;19508;42.578;23.416;2023-01-15T07:36:25;94050.94;;;6.92;66.27
33151;BME280;19508;42.578;23.416;2023-01-15T07:38:50;94058.75;;;7.24;64.85
33151;BME280;19508;42.578;23.416;2023-01-15T07:41:16;94064.78;;;7.49;63.46
33151;BME280;19508;42.578;23.416;2023-01-15T07:44:00;94053.28;;;7.60;61.01
33151;BME280;19508;42.578;23.416;2023-01-15T07:46:44;94059.34;;;7.68;60.04
33151;BME280;19508;42.578;23.416;2023-01-15T07:49:29;94065.56;;;7.38;61.09
33151;BME280;19508;42.578;23.416;2023-01-15T07:52:18;94071.09;;;7.25;60.72
33151;BME280;19508;42.578;23.416;2023-01-15T07:54:46;94067.06;;;7.04;61.88
33151;BME280;19508;42.578;23.416;2023-01-15T07:57:15;94062.41;;;6.81;61.91
33151;BME280;19508;42.578;23.416;2023-01-15T07:59:42;94064.56;;;7.21;61.41
33151;BME280;19508;42.578;23.416;2023-01-15T08:02:07;94070.72;;;7.51;60.07
33151;BME280;19508;42.578;23.416;2023-01-15T08:04:33;94060.72;;;7.58;59.73
33151;BME280;19508;42.578;23.416;2023-01-15T08:07:00;94064.56;;;8.04;57.88
33151;BME280;19508;42.578;23.416;2023-01-15T08:09:27;94069.34;;;8.26;56.70
33151;BME280;19508;42.578;23.416;2023-01-15T08:11:53;94060.22;;;7.91;57.86
33151;BME280;19508;42.578;23.416;2023-01-15T08:14:37;94080.19;;;8.07;57.89
33151;BME280;19508;42.578;23.416;2023-01-15T08:17:21;94074.63;;;8.20;58.19
33151;BME280;19508;42.578;23.416;2023-01-15T08:19:46;94071.34;;;8.30;58.43
33151;BME280;19508;42.578;23.416;2023-01-15T08:22:12;94069.47;;;8.54;57.37
33151;BME280;19508;42.578;23.416;2023-01-15T08:24:38;94070.44;;;8.36;58.16
33151;BME280;19508;42.578;23.416;2023-01-15T08:27:04;94070.88;;;8.45;57.60
33151;BME280;19508;42.578;23.416;2023-01-15T08:29:29;94067.38;;;8.33;57.80
33151;BME280;19508;42.578;23.416;2023-01-15T08:31:55;94068.53;;;8.13;57.47
33151;BME280;19508;42.578;23.416;2023-01-15T08:34:20;94068.63;;;7.95;58.37
33151;BME280;19508;42.578;23.416;2023-01-15T08:36:46;94072.47;;;7.99;58.27
33151;BME280;19508;42.578;23.416;2023-01-15T08:39:13;94079.03;;;8.03;57.73
33151;BME280;19508;42.578;23.416;2023-01-15T08:41:39;94075.16;;;8.11;58.44
33151;BME280;19508;42.578;23.416;2023-01-15T08:44:04;94062.22;;;8.19;58.25
33151;BME280;19508;42.578;23.416;2023-01-15T08:46:30;94063.97;;;8.26;58.23
33151;BME280;19508;42.578;23.416;2023-01-15T08:48:55;94063.44;;;8.47;56.92
33151;BME280;19508;42.578;23.416;2023-01-15T08:51:20;94059.72;;;8.48;56.94
33151;BME280;19508;42.578;23.416;2023-01-15T08:53:46;94060.53;;;8.48;57.12
33151;BME280;19508;42.578;23.416;2023-01-15T08:56:16;94067.53;;;8.38;56.70
33151;BME280;19508;42.578;23.416;2023-01-15T08:58:42;94065.06;;;8.48;57.16
33151;BME280;19508;42.578;23.416;2023-01-15T09:01:09;94055.00;;;8.32;57.46
33151;BME280;19508;42.578;23.416;2023-01-15T09:03:36;94067.28;;;8.51;57.91
33151;BME280;19508;42.578;23.416;2023-01-15T09:06:03;94068.53;;;8.25;57.45
33151;BME280;19508;42.578;23.416;2023-01-15T09:08:30;94061.41;;;7.96;58.69
33151;BME280;19508;42.578;23.416;2023-01-15T09:10:57;94064.91;;;7.96;59.16
33151;BME280;19508;42.578;23.416;2023-01-15T09:13:23;94039.91;;;7.72;59.05
33151;BME280;19508;42.578;23.416;2023-01-15T09:15:49;94060.78;;;7.82;58.76
33151;BME280;19508;42.578;23.416;2023-01-15T09:18:14;94058.34;;;7.92;58.40
33151;BME280;19508;42.578;23.416;2023-01-15T09:20:45;94048.44;;;7.81;59.01
33151;BME280;19508;42.578;23.416;2023-01-15T09:23:11;94050.22;;;7.45;60.26
33151;BME280;19508;42.578;23.416;2023-01-15T09:25:36;94056.47;;;7.81;59.59
33151;BME280;19508;42.578;23.416;2023-01-15T09:28:02;94058.06;;;7.58;60.89
33151;BME280;19508;42.578;23.416;2023-01-15T09:30:27;94055.63;;;7.69;59.77
33151;BME280;19508;42.578;23.416;2023-01-15T09:32:54;94063.00;;;7.43;60.78
33151;BME280;19508;42.578;23.416;2023-01-15T09:35:19;94056.63;;;7.44;60.47
33151;BME280;19508;42.578;23.416;2023-01-15T09:37:50;94032.63;;;7.49;60.57
33151;BME280;19508;42.578;23.416;2023-01-15T09:40:50;94043.03;;;7.57;60.87
33151;BME280;19508;42.578;23.416;2023-01-15T09:46:19;94034.66;;;7.66;59.76
33151;BME280;19508;42.578;23.416;2023-01-15T09:51:53;94025.78;;;7.53;60.13
33151;BME280;19508;42.578;23.416;2023-01-15T09:54:42;94020.25;;;7.90;60.24
33151;BME280;19508;42.578;23.416;2023-01-15T09:57:13;94019.78;;;8.05;59.22
33151;BME280;19508;42.578;23.416;2023-01-15T09:59:43;94015.13;;;8.24;58.22
33151;BME280;19508;42.578;23.416;2023-01-15T10:05:01;93997.38;;;8.34;58.19
33151;BME280;19508;42.578;23.416;2023-01-15T10:07:40;93996.91;;;8.61;58.45
33151;BME280;19508;42.578;23.416;2023-01-15T10:10:11;93985.91;;;8.62;57.20
33151;BME280;19508;42.578;23.416;2023-01-15T10:12:38;93985.91;;;8.62;57.11
33151;BME280;19508;42.578;23.416;2023-01-15T10:15:16;93977.28;;;9.00;55.57
33151;BME280;19508;42.578;23.416;2023-01-15T10:17:50;93973.66;;;9.52;55.28
33151;BME280;19508;42.578;23.416;2023-01-15T10:29:01;93939.41;;;9.47;54.34
33151;BME280;19508;42.578;23.416;2023-01-15T10:34:26;93949.41;;;9.18;55.46
33151;BME280;19508;42.578;23.416;2023-01-15T10:37:04;93942.84;;;9.43;55.57
33151;BME280;19508;42.578;23.416;2023-01-15T10:42:51;93934.06;;;9.64;54.60
33151;BME280;19508;42.578;23.416;2023-01-15T10:45:21;93929.97;;;9.78;54.23
33151;BME280;19508;42.578;23.416;2023-01-15T10:48:08;93916.63;;;9.83;54.36
33151;BME280;19508;42.578;23.416;2023-01-15T10:50:34;93913.19;;;9.54;54.54
33151;BME280;19508;42.578;23.416;2023-01-15T10:55:43;93909.09;;;10.02;53.53
33151;BME280;19508;42.578;23.416;2023-01-15T10:58:26;93899.03;;;9.76;53.74
33151;BME280;19508;42.578;23.416;2023-01-15T11:00:59;93897.22;;;9.65;54.59
33151;BME280;19508;42.578;23.416;2023-01-15T11:03:38;93897.38;;;9.92;54.17
33151;BME280;19508;42.578;23.416;2023-01-15T11:06:11;93888.28;;;9.42;55.43
33151;BME280;19508;42.578;23.416;2023-01-15T11:08:39;93889.09;;;9.76;54.45
33151;BME280;19508;42.578;23.416;2023-01-15T11:11:27;93886.97;;;9.61;54.43
33151;BME280;19508;42.578;23.416;2023-01-15T11:14:12;93876.06;;;9.68;54.55
33151;BME280;19508;42.578;23.416;2023-01-15T11:16:56;93875.72;;;9.48;54.56
33151;BME280;19508;42.578;23.416;2023-01-15T11:19:41;93859.13;;;9.51;55.07
33151;BME280;19508;42.578;23.416;2023-01-15T11:24:37;93875.72;;;10.42;53.25
33151;BME280;19508;42.578;23.416;2023-01-15T11:27:14;93864.16;;;10.03;53.22
33151;BME280;19508;42.578;23.416;2023-01-15T11:29:43;93862.47;;;9.41;54.27
33151;BME280;19508;42.578;23.416;2023-01-15T11:32:28;93854.56;;;9.18;55.50
33151;BME280;19508;42.578;23.416;2023-01-15T11:35:14;93840.63;;;9.04;56.02
33151;BME280;19508;42.578;23.416;2023-01-15T11:37:41;93850.91;;;9.07;55.99
33151;BME280;19508;42.578;23.416;2023-01-15T11:40:19;93849.69;;;9.31;55.35
33151;BME280;19508;42.578;23.416;2023-01-15T11:42:46;93842.03;;;9.40;54.78
33151;BME280;19508;42.578;23.416;2023-01-15T11:45:31;93840.34;;;9.73;54.59
33151;BME280;19508;42.578;23.416;2023-01-15T11:51:05;93828.41;;;10.46;52.26
33151;BME280;19508;42.578;23.416;2023-01-15T11:53:37;93826.44;;;10.41;52.93
33151;BME280;19508;42.578;23.416;2023-01-15T11:56:05;93817.34;;;10.69;52.19
33151;BME280;19508;42.578;23.416;2023-01-15T11:58:39;93817.63;;;10.24;53.16
33151;BME280;19508;42.578;23.416;2023-01-15T12:01:05;93808.88;;;10.12;53.67
33151;BME280;19508;42.578;23.416;2023-01-15T12:03:33;93821.22;;;9.91;54.46
33151;BME280;19508;42.578;23.416;2023-01-15T12:06:04;93819.56;;;10.07;53.97
33151;BME280;19508;42.578;23.416;2023-01-15T12:14:17;93809.97;;;11.19;51.65
33151;BME280;19508;42.578;23.416;2023-01-15T12:16:54;93807.69;;;10.73;52.59
33151;BME280;19508;42.578;23.416;2023-01-15T12:29:57;93799.34;;;9.82;54.05
33151;BME280;19508;42.578;23.416;2023-01-15T12:32:29;93804.97;;;9.81;55.19
33151;BME280;19508;42.578;23.416;2023-01-15T12:35:05;93785.63;;;10.50;53.15
33151;BME280;19508;42.578;23.416;2023-01-15T12:37:43;93793.84;;;10.92;51.87
33151;BME280;19508;42.578;23.416;2023-01-15T12:40:28;93795.22;;;11.26;51.48
33151;BME280;19508;42.578;23.416;2023-01-15T12:42:57;93787.22;;;11.05;51.45
33151;BME280;19508;42.578;23.416;2023-01-15T12:45:48;93787.03;;;11.53;50.47
33151;BME280;19508;42.578;23.416;2023-01-15T12:48:35;93781.16;;;11.56;49.63
33151;BME280;19508;42.578;23.416;2023-01-15T12:51:04;93782.31;;;11.76;49.18
33151;BME280;19508;42.578;23.416;2023-01-15T12:53:46;93771.59;;;12.54;46.00
33151;BME280;19508;42.578;23.416;2023-01-15T12:59:22;93763.28;;;12.96;45.12
33151;BME280;19508;42.578;23.416;2023-01-15T13:04:30;93768.28;;;11.74;47.82
33151;BME280;19508;42.578;23.416;2023-01-15T13:10:18;93766.94;;;10.65;49.86
33151;BME280;19508;42.578;23.416;2023-01-15T13:12:44;93758.03;;;10.15;51.81
33151;BME280;19508;42.578;23.416;2023-01-15T13:15:13;93757.00;;;9.95;51.24
33151;BME280;19508;42.578;23.416;2023-01-15T13:18:03;93760.09;;;9.43;53.03
33151;BME280;19508;42.578;23.416;2023-01-15T13:20:49;93762.66;;;9.32;53.67
33151;BME280;19508;42.578;23.416;2023-01-15T13:29:04;93752.06;;;8.42;56.47
33151;BME280;19508;42.578;23.416;2023-01-15T13:37:28;93752.06;;;8.13;57.34
33151;BME280;19508;42.578;23.416;2023-01-15T13:40:00;93741.78;;;8.10;57.25
33151;BME280;19508;42.578;23.416;2023-01-15T13:42:28;93740.63;;;7.89;58.07
33151;BME280;19508;42.578;23.416;2023-01-15T13:47:45;93743.72;;;7.98;58.13
33151;BME280;19508;42.578;23.416;2023-01-15T13:50:14;93742.06;;;7.69;58.88
33151;BME280;19508;42.578;23.416;2023-01-15T13:52:41;93742.94;;;7.86;58.74
33151;BME280;19508;42.578;23.416;2023-01-15T13:55:19;93748.53;;;7.84;58.71
33151;BME280;19508;42.578;23.416;2023-01-15T13:57:47;93734.69;;;7.76;59.12
33151;BME280;19508;42.578;23.416;2023-01-15T14:00:35;93741.66;;;7.88;58.94
33151;BME280;19508;42.578;23.416;2023-01-15T14:03:29;93729.72;;;7.68;61.24
33151;BME280;19508;42.578;23.416;2023-01-15T14:06:00;93739.19;;;7.58;61.93
33151;BME280;19508;42.578;23.416;2023-01-15T14:08:40;93736.44;;;7.30;63.04
33151;BME280;19508;42.578;23.416;2023-01-15T14:14:15;93734.63;;;6.95;64.56
33151;BME280;19508;42.578;23.416;2023-01-15T14:17:06;93737.63;;;6.87;64.78
33151;BME280;19508;42.578;23.416;2023-01-15T14:35:18;93735.97;;;5.79;68.71
33151;BME280;19508;42.578;23.416;2023-01-15T14:37:57;93725.41;;;5.84;68.79
33151;BME280;19508;42.578;23.416;2023-01-15T14:40:32;93726.38;;;5.72;69.00
33151;BME280;19508;42.578;23.416;2023-01-15T14:43:01;93712.56;;;5.45;69.69
33151;BME280;19508;42.578;23.416;2023-01-15T14:45:36;93723.41;;;5.50;70.00
33151;BME280;19508;42.578;23.416;2023-01-15T14:48:05;93728.75;;;5.31;70.22
33151;BME280;19508;42.578;23.416;2023-01-15T14:50:41;93733.19;;;5.37;70.18
33151;BME280;19508;42.578;23.416;2023-01-15T14:58:35;93728.16;;;5.11;70.93
33151;BME280;19508;42.578;23.416;2023-01-15T15:01:28;93729.88;;;5.05;71.50
33151;BME280;19508;42.578;23.416;2023-01-15T15:07:00;93733.41;;;4.81;71.27
33151;BME280;19508;42.578;23.416;2023-01-15T15:09:32;93727.63;;;4.59;72.09